Pecos, TX

11:20 AM CST on February 08, 2016 (GMT -0600)
Pecos Municipal

Weather History for KPEQ - October, 2013

Change the Weather History Date:

Sunday, October 27, 2013

  Actual Average Record
Temperature  
Mean Temperature 58 °F -  
Max Temperature 76 °F 79 °F 97 °F (1979)
Min Temperature 41 °F 44 °F 32 °F (1975)
Degree Days  
Heating Degree Days 6    
Growing Degree Days 8 (Base 50)    
Moisture  
Dew Point 39 °F    
Average Humidity 49    
Maximum Humidity 76    
Minimum Humidity 26    
Precipitation  
Precipitation 0.00 in - - ()
Sea Level Pressure  
Sea Level Pressure 30.12 in    
Wind  
Wind Speed 6 mph (NNE)    
Max Wind Speed 12 mph    
Max Gust Speed -    
Visibility 10 miles    
Events      
Averages and records for this station are not official NWS values.
T = Trace of Precipitation, MM = Missing Value Source: NWS Daily Summary

Daily Weather History Graph

Daily Weather History Graph

Search for Another Location

Airport or City:

Trip Planner

Search our weather history database for the weather conditions in past years. The results will help you decide how hot, cold, wet, or windy it might be!

Date:

Astronomy

Oct. 27, 2013 Rise Set
Actual Time 8:06 AM CDT 7:09 PM CDT
Civil Twilight 7:41 AM CDT 7:34 PM CDT
Nautical Twilight 7:12 AM CDT 8:02 PM CDT
Astronomical Twilight 6:44 AM CDT 8:30 PM CDT
Moon 1:30 AM CDT (10/27) 2:56 PM CDT (10/27)
Length of Visible Light 11h 52m
Length of Day
11h 03m
Last Quarter, 43% of the Moon is Illuminated
Oct 27
Last Quarter
Nov 3
New
Nov 9
First Quarter
Nov 17
Full
Nov 25
Last Quarter

Hourly Weather History & Observations

Time (CDT) Temp. Windchill Dew Point Humidity Pressure Visibility Wind Dir Wind Speed Gust Speed Precip Events Conditions
12:15 AM 62.2 °F - 41.0 °F 46% 30.20 in 10.0 mi NNE 9.2 mph - N/A   Clear
12:35 AM 61.3 °F - 41.0 °F 47% 30.19 in 10.0 mi NNE 9.2 mph - N/A   Clear
12:55 AM 60.8 °F - 41.2 °F 48% 30.20 in 10.0 mi NNE 6.9 mph - N/A   Clear
1:15 AM 60.1 °F - 41.2 °F 50% 30.20 in 10.0 mi NNE 5.8 mph - N/A   Clear
1:35 AM 59.2 °F - 41.2 °F 51% 30.21 in 10.0 mi North 3.5 mph - N/A   Clear
1:55 AM 58.3 °F - 41.0 °F 53% 30.21 in 10.0 mi North 3.5 mph - N/A   Clear
2:15 AM 57.6 °F - 41.0 °F 54% 30.21 in 10.0 mi North 5.8 mph - N/A   Clear
2:35 AM 55.6 °F - 40.5 °F 57% 30.21 in 10.0 mi NNW 3.5 mph - N/A   Clear
2:55 AM 51.8 °F - 39.6 °F 63% 30.22 in 10.0 mi WNW 6.9 mph - N/A   Clear
3:15 AM 50.5 °F - 39.2 °F 65% 30.22 in 10.0 mi West 6.9 mph - N/A   Clear
3:35 AM 49.1 °F - 38.5 °F 67% 30.22 in 10.0 mi West 8.1 mph - N/A   Clear
3:55 AM 48.7 °F - 38.3 °F 67% 30.21 in 10.0 mi West 8.1 mph - N/A   Clear
4:15 AM 48.2 °F - 38.1 °F 68% 30.21 in 10.0 mi West 6.9 mph - N/A   Clear
4:35 AM 46.8 °F - 37.6 °F 70% 30.21 in 10.0 mi West 6.9 mph - N/A   Clear
4:55 AM 46.4 °F 45.2 °F 37.4 °F 71% 30.21 in 10.0 mi NW 3.5 mph - N/A   Clear
5:15 AM 46.0 °F 43.9 °F 37.2 °F 71% 30.21 in 10.0 mi NW 4.6 mph - N/A   Clear
5:35 AM 45.7 °F - 36.7 °F 71% 30.21 in 10.0 mi Calm Calm - N/A   Clear
5:55 AM 43.7 °F 41.1 °F 35.6 °F 73% 30.20 in 10.0 mi West 4.6 mph - N/A   Clear
6:15 AM 43.0 °F 38.8 °F 35.2 °F 74% 30.21 in 10.0 mi West 6.9 mph - N/A   Clear
6:35 AM 42.8 °F 40.1 °F 35.1 °F 74% 30.21 in 10.0 mi WNW 4.6 mph - N/A   Clear
6:55 AM 41.5 °F 38.6 °F 34.5 °F 76% 30.21 in 10.0 mi West 4.6 mph - N/A   Clear
7:15 AM 41.9 °F 38.2 °F 34.7 °F 76% 30.21 in 10.0 mi WNW 5.8 mph - N/A   Clear
7:35 AM 42.3 °F 40.5 °F 35.1 °F 76% 30.20 in 10.0 mi WNW 3.5 mph - N/A   Clear
7:55 AM 41.9 °F 38.2 °F 34.9 °F 76% 30.21 in 10.0 mi NW 5.8 mph - N/A   Clear
8:15 AM 42.3 °F 39.4 °F 34.7 °F 75% 30.21 in 10.0 mi NW 4.6 mph - N/A   Clear
8:35 AM 41.7 °F 39.8 °F 34.0 °F 74% 30.22 in 10.0 mi NW 3.5 mph - N/A   Clear
8:55 AM 45.7 °F 43.4 °F 36.5 °F 70% 30.22 in 10.0 mi NW 4.6 mph - N/A   Clear
9:15 AM 48.9 °F - 37.0 °F 64% 30.22 in 10.0 mi NNW 3.5 mph - N/A   Clear
9:35 AM 52.2 °F - 37.8 °F 58% 30.22 in 10.0 mi North 6.9 mph - N/A   Clear
9:55 AM 54.1 °F - 38.3 °F 55% 30.23 in 10.0 mi North 4.6 mph - N/A   Clear
10:15 AM 56.1 °F - 38.5 °F 52% 30.23 in 10.0 mi North 4.6 mph - N/A   Clear
10:35 AM 58.5 °F - 38.7 °F 48% 30.22 in 10.0 mi North 6.9 mph - N/A   Clear
10:55 AM 59.9 °F - 38.5 °F 45% 30.22 in 10.0 mi North 4.6 mph - N/A   Clear
11:15 AM 60.8 °F - 38.5 °F 44% 30.21 in 10.0 mi Calm Calm - N/A   Clear
11:35 AM 62.1 °F - 38.5 °F 42% 30.20 in 10.0 mi Calm Calm - N/A   Clear
11:55 AM 63.3 °F - 38.3 °F 40% 30.19 in 10.0 mi Calm Calm - N/A   Clear
12:15 PM 64.6 °F - 38.1 °F 38% 30.19 in 10.0 mi Calm Calm - N/A   Clear
12:35 PM 65.7 °F - 38.1 °F 36% 30.18 in 10.0 mi WSW 3.5 mph - N/A   Clear
12:55 PM 66.4 °F - 38.1 °F 35% 30.16 in 10.0 mi Calm Calm - N/A   Clear
1:15 PM 67.6 °F - 38.3 °F 34% 30.15 in 10.0 mi South 3.5 mph - N/A   Clear
1:35 PM 68.5 °F - 38.3 °F 33% 30.13 in 10.0 mi Calm Calm - N/A   Clear
1:55 PM 69.8 °F - 38.3 °F 32% 30.12 in 7.0 mi Calm Calm - N/A   Clear
2:15 PM 70.3 °F - 38.1 °F 31% 30.10 in 10.0 mi NE 5.8 mph - N/A   Clear
2:35 PM 71.1 °F - 37.9 °F 30% 30.08 in 10.0 mi ESE 6.9 mph - N/A   Clear
2:55 PM 72.3 °F - 38.3 °F 29% 30.06 in 10.0 mi ESE 4.6 mph - N/A   Clear
3:15 PM 73.2 °F - 38.3 °F 28% 30.05 in 10.0 mi East 6.9 mph - N/A   Clear
3:35 PM 74.1 °F - 38.3 °F 27% 30.04 in 10.0 mi East 5.8 mph - N/A   Clear
3:55 PM 73.9 °F - 38.5 °F 28% 30.03 in 10.0 mi Calm Calm - N/A   Clear
4:15 PM 75.2 °F - 38.5 °F 27% 30.02 in 10.0 mi ESE 4.6 mph - N/A   Clear
4:35 PM 75.4 °F - 38.7 °F 27% 30.01 in 10.0 mi ESE 4.6 mph - N/A   Clear
4:55 PM 76.1 °F - 38.8 °F 26% 30.00 in 10.0 mi East 9.2 mph - N/A   Clear
5:15 PM 76.1 °F - 39.2 °F 26% 30.00 in 10.0 mi East 5.8 mph - N/A   Clear
5:35 PM 76.1 °F - 39.4 °F 27% 29.99 in 10.0 mi SE 5.8 mph - N/A   Clear
5:55 PM 76.1 °F - 39.2 °F 26% 29.98 in 10.0 mi ENE 8.1 mph - N/A   Clear
6:15 PM 75.2 °F - 39.6 °F 28% 29.98 in 10.0 mi East 8.1 mph - N/A   Clear
6:35 PM 74.7 °F - 39.6 °F 28% 29.97 in 10.0 mi East 9.2 mph - N/A   Clear
6:55 PM 72.7 °F - 39.2 °F 30% 29.96 in 10.0 mi East 9.2 mph - N/A   Clear
7:15 PM 70.2 °F - 39.2 °F 32% 29.97 in 10.0 mi East 6.9 mph - N/A   Clear
7:35 PM 67.6 °F - 38.8 °F 35% 29.97 in 10.0 mi East 6.9 mph - N/A   Clear
7:55 PM 66.2 °F - 39.2 °F 37% 29.98 in 10.0 mi East 6.9 mph - N/A   Clear
8:15 PM 64.6 °F - 39.6 °F 40% 29.98 in 10.0 mi ENE 5.8 mph - N/A   Clear
8:35 PM 62.4 °F - 39.4 °F 43% 29.98 in 10.0 mi East 6.9 mph - N/A   Clear
8:55 PM 62.6 °F - 40.1 °F 44% 29.98 in 10.0 mi ENE 6.9 mph - N/A   Clear
9:15 PM 63.1 °F - 40.5 °F 43% 29.98 in 10.0 mi ENE 9.2 mph - N/A   Clear
9:35 PM 63.7 °F - 40.6 °F 43% 29.97 in 10.0 mi ENE 10.4 mph - N/A   Clear
9:55 PM 62.6 °F - 40.5 °F 44% 29.97 in 10.0 mi ENE 9.2 mph - N/A   Clear
10:15 PM 62.4 °F - 41.5 °F 46% 29.97 in 10.0 mi ENE 11.5 mph - N/A   Clear
10:35 PM 61.5 °F - 42.1 °F 49% 29.96 in 10.0 mi East 10.4 mph - N/A   Clear
10:55 PM 60.6 °F - 42.8 °F 52% 29.96 in 10.0 mi East 9.2 mph - N/A   Clear
11:15 PM 59.7 °F - 43.7 °F 55% 29.96 in 10.0 mi East 9.2 mph - N/A   Clear
11:35 PM 59.9 °F - 45.1 °F 58% 29.96 in 10.0 mi East 6.9 mph - N/A   Clear
11:55 PM 59.4 °F - 46.2 °F 62% 29.95 in 10.0 mi East 4.6 mph - N/A   Clear